sensor_id;sensor_type;location;lat;lon;timestamp;P1;durP1;ratioP1;P2;durP2;ratioP2
16699;SDS011;8466;52.286;21.124;2024-01-25T00:00:38;9.43;;;3.10;;
16699;SDS011;8466;52.286;21.124;2024-01-25T00:03:07;7.07;;;3.20;;
16699;SDS011;8466;52.286;21.124;2024-01-25T00:05:36;10.03;;;3.10;;
16699;SDS011;8466;52.286;21.124;2024-01-25T00:08:07;7.87;;;2.80;;
16699;SDS011;8466;52.286;21.124;2024-01-25T00:10:36;6.50;;;2.23;;
16699;SDS011;8466;52.286;21.124;2024-01-25T00:13:06;7.73;;;3.20;;
16699;SDS011;8466;52.286;21.124;2024-01-25T00:15:35;5.10;;;2.70;;
16699;SDS011;8466;52.286;21.124;2024-01-25T00:18:04;7.83;;;2.73;;
16699;SDS011;8466;52.286;21.124;2024-01-25T00:20:33;5.30;;;2.30;;
16699;SDS011;8466;52.286;21.124;2024-01-25T00:23:02;5.50;;;2.40;;
16699;SDS011;8466;52.286;21.124;2024-01-25T00:25:30;6.20;;;2.20;;
16699;SDS011;8466;52.286;21.124;2024-01-25T00:27:59;9.17;;;2.60;;
16699;SDS011;8466;52.286;21.124;2024-01-25T00:30:31;6.00;;;2.37;;
16699;SDS011;8466;52.286;21.124;2024-01-25T00:33:00;6.13;;;2.40;;
16699;SDS011;8466;52.286;21.124;2024-01-25T00:35:29;6.87;;;2.70;;
16699;SDS011;8466;52.286;21.124;2024-01-25T00:37:59;5.43;;;2.43;;
16699;SDS011;8466;52.286;21.124;2024-01-25T00:40:28;7.23;;;2.37;;
16699;SDS011;8466;52.286;21.124;2024-01-25T00:42:57;4.17;;;2.03;;
16699;SDS011;8466;52.286;21.124;2024-01-25T00:45:26;6.73;;;2.13;;
16699;SDS011;8466;52.286;21.124;2024-01-25T00:47:57;5.00;;;2.10;;
16699;SDS011;8466;52.286;21.124;2024-01-25T00:50:26;4.93;;;2.03;;
16699;SDS011;8466;52.286;21.124;2024-01-25T00:52:56;5.40;;;1.97;;
16699;SDS011;8466;52.286;21.124;2024-01-25T00:55:25;3.10;;;1.97;;
16699;SDS011;8466;52.286;21.124;2024-01-25T00:57:54;3.40;;;1.70;;
16699;SDS011;8466;52.286;21.124;2024-01-25T01:00:24;6.53;;;2.03;;
16699;SDS011;8466;52.286;21.124;2024-01-25T01:02:53;4.03;;;1.83;;
16699;SDS011;8466;52.286;21.124;2024-01-25T01:05:25;5.33;;;1.87;;
16699;SDS011;8466;52.286;21.124;2024-01-25T01:07:55;3.90;;;1.80;;
16699;SDS011;8466;52.286;21.124;2024-01-25T01:10:24;6.27;;;1.70;;
16699;SDS011;8466;52.286;21.124;2024-01-25T01:12:53;4.17;;;1.80;;
16699;SDS011;8466;52.286;21.124;2024-01-25T01:15:22;4.73;;;1.53;;
16699;SDS011;8466;52.286;21.124;2024-01-25T01:17:50;4.47;;;1.83;;
16699;SDS011;8466;52.286;21.124;2024-01-25T01:20:19;5.17;;;2.03;;
16699;SDS011;8466;52.286;21.124;2024-01-25T01:22:50;3.80;;;1.87;;
16699;SDS011;8466;52.286;21.124;2024-01-25T01:25:20;8.57;;;2.60;;
16699;SDS011;8466;52.286;21.124;2024-01-25T01:27:48;6.23;;;2.10;;
16699;SDS011;8466;52.286;21.124;2024-01-25T01:30:17;7.27;;;2.10;;
16699;SDS011;8466;52.286;21.124;2024-01-25T01:32:47;5.17;;;2.00;;
16699;SDS011;8466;52.286;21.124;2024-01-25T01:35:16;5.93;;;2.07;;
16699;SDS011;8466;52.286;21.124;2024-01-25T01:37:45;7.93;;;2.83;;
16699;SDS011;8466;52.286;21.124;2024-01-25T01:40:15;7.10;;;2.33;;
16699;SDS011;8466;52.286;21.124;2024-01-25T01:42:44;8.70;;;2.47;;
16699;SDS011;8466;52.286;21.124;2024-01-25T01:45:13;6.30;;;2.30;;
16699;SDS011;8466;52.286;21.124;2024-01-25T01:47:42;7.27;;;2.50;;
16699;SDS011;8466;52.286;21.124;2024-01-25T01:50:11;7.43;;;2.30;;
16699;SDS011;8466;52.286;21.124;2024-01-25T01:52:40;10.70;;;3.10;;
16699;SDS011;8466;52.286;21.124;2024-01-25T01:55:10;9.00;;;2.43;;
16699;SDS011;8466;52.286;21.124;2024-01-25T01:57:41;7.43;;;2.30;;
16699;SDS011;8466;52.286;21.124;2024-01-25T02:00:10;7.47;;;1.90;;
16699;SDS011;8466;52.286;21.124;2024-01-25T02:02:42;8.97;;;2.70;;
16699;SDS011;8466;52.286;21.124;2024-01-25T02:05:12;12.77;;;2.97;;
16699;SDS011;8466;52.286;21.124;2024-01-25T02:07:41;5.70;;;1.83;;
16699;SDS011;8466;52.286;21.124;2024-01-25T02:10:11;6.43;;;2.23;;
16699;SDS011;8466;52.286;21.124;2024-01-25T02:12:41;8.37;;;2.37;;
16699;SDS011;8466;52.286;21.124;2024-01-25T02:15:10;8.53;;;2.37;;
16699;SDS011;8466;52.286;21.124;2024-01-25T02:17:38;6.80;;;2.63;;
16699;SDS011;8466;52.286;21.124;2024-01-25T02:20:08;8.03;;;2.33;;
16699;SDS011;8466;52.286;21.124;2024-01-25T02:22:38;8.00;;;2.77;;
16699;SDS011;8466;52.286;21.124;2024-01-25T02:25:07;7.27;;;2.40;;
16699;SDS011;8466;52.286;21.124;2024-01-25T02:27:36;8.07;;;2.30;;
16699;SDS011;8466;52.286;21.124;2024-01-25T02:30:06;6.70;;;2.60;;
16699;SDS011;8466;52.286;21.124;2024-01-25T02:32:35;9.47;;;3.10;;
16699;SDS011;8466;52.286;21.124;2024-01-25T02:35:04;5.23;;;2.00;;
16699;SDS011;8466;52.286;21.124;2024-01-25T02:37:33;7.43;;;2.30;;
16699;SDS011;8466;52.286;21.124;2024-01-25T02:40:03;4.30;;;2.27;;
16699;SDS011;8466;52.286;21.124;2024-01-25T02:42:33;5.50;;;2.33;;
16699;SDS011;8466;52.286;21.124;2024-01-25T02:45:02;9.77;;;3.00;;
16699;SDS011;8466;52.286;21.124;2024-01-25T02:47:30;9.13;;;2.80;;
16699;SDS011;8466;52.286;21.124;2024-01-25T02:49:59;7.83;;;2.50;;
16699;SDS011;8466;52.286;21.124;2024-01-25T02:52:28;7.43;;;2.90;;
16699;SDS011;8466;52.286;21.124;2024-01-25T02:54:57;10.50;;;2.90;;
16699;SDS011;8466;52.286;21.124;2024-01-25T02:57:27;10.60;;;3.00;;
16699;SDS011;8466;52.286;21.124;2024-01-25T02:59:58;8.17;;;2.93;;
16699;SDS011;8466;52.286;21.124;2024-01-25T03:02:26;8.47;;;2.63;;
16699;SDS011;8466;52.286;21.124;2024-01-25T03:04:55;10.23;;;2.67;;
16699;SDS011;8466;52.286;21.124;2024-01-25T03:07:24;8.27;;;3.00;;
16699;SDS011;8466;52.286;21.124;2024-01-25T03:09:53;10.00;;;2.83;;
16699;SDS011;8466;52.286;21.124;2024-01-25T03:12:22;9.27;;;2.73;;
16699;SDS011;8466;52.286;21.124;2024-01-25T03:14:52;7.33;;;2.97;;
16699;SDS011;8466;52.286;21.124;2024-01-25T03:17:20;11.97;;;3.60;;
16699;SDS011;8466;52.286;21.124;2024-01-25T03:19:49;8.47;;;2.73;;
16699;SDS011;8466;52.286;21.124;2024-01-25T03:22:18;11.97;;;2.90;;
16699;SDS011;8466;52.286;21.124;2024-01-25T03:24:47;6.73;;;2.83;;
16699;SDS011;8466;52.286;21.124;2024-01-25T03:27:16;7.17;;;2.73;;
16699;SDS011;8466;52.286;21.124;2024-01-25T03:29:45;7.13;;;3.07;;
16699;SDS011;8466;52.286;21.124;2024-01-25T03:32:15;6.73;;;3.03;;
16699;SDS011;8466;52.286;21.124;2024-01-25T03:34:43;8.70;;;3.07;;
16699;SDS011;8466;52.286;21.124;2024-01-25T03:37:12;8.30;;;3.37;;
16699;SDS011;8466;52.286;21.124;2024-01-25T03:39:41;11.73;;;4.10;;
16699;SDS011;8466;52.286;21.124;2024-01-25T03:42:10;9.17;;;3.43;;
16699;SDS011;8466;52.286;21.124;2024-01-25T03:44:38;7.70;;;4.00;;
16699;SDS011;8466;52.286;21.124;2024-01-25T03:47:08;10.50;;;3.40;;
16699;SDS011;8466;52.286;21.124;2024-01-25T03:49:38;10.23;;;3.50;;
16699;SDS011;8466;52.286;21.124;2024-01-25T03:52:07;9.23;;;3.37;;
16699;SDS011;8466;52.286;21.124;2024-01-25T03:54:36;9.47;;;2.70;;
16699;SDS011;8466;52.286;21.124;2024-01-25T03:57:05;8.93;;;3.07;;
16699;SDS011;8466;52.286;21.124;2024-01-25T03:59:33;9.25;;;3.33;;
16699;SDS011;8466;52.286;21.124;2024-01-25T04:02:02;8.40;;;3.50;;
16699;SDS011;8466;52.286;21.124;2024-01-25T04:04:31;9.37;;;3.30;;
16699;SDS011;8466;52.286;21.124;2024-01-25T04:07:01;11.10;;;3.47;;
16699;SDS011;8466;52.286;21.124;2024-01-25T04:09:30;12.50;;;3.10;;
16699;SDS011;8466;52.286;21.124;2024-01-25T04:11:59;8.17;;;3.00;;
16699;SDS011;8466;52.286;21.124;2024-01-25T04:14:27;11.93;;;4.47;;
16699;SDS011;8466;52.286;21.124;2024-01-25T04:16:56;11.40;;;3.87;;
16699;SDS011;8466;52.286;21.124;2024-01-25T04:19:25;11.47;;;3.80;;
16699;SDS011;8466;52.286;21.124;2024-01-25T04:21:54;12.27;;;3.80;;
16699;SDS011;8466;52.286;21.124;2024-01-25T04:24:24;11.30;;;3.90;;
16699;SDS011;8466;52.286;21.124;2024-01-25T04:26:53;10.33;;;4.00;;
16699;SDS011;8466;52.286;21.124;2024-01-25T04:29:21;9.13;;;3.80;;
16699;SDS011;8466;52.286;21.124;2024-01-25T04:31:50;11.50;;;5.13;;
16699;SDS011;8466;52.286;21.124;2024-01-25T04:34:19;13.00;;;5.87;;
16699;SDS011;8466;52.286;21.124;2024-01-25T04:36:48;10.90;;;4.50;;
16699;SDS011;8466;52.286;21.124;2024-01-25T04:39:17;9.57;;;3.27;;
16699;SDS011;8466;52.286;21.124;2024-01-25T04:41:47;8.03;;;3.20;;
16699;SDS011;8466;52.286;21.124;2024-01-25T04:44:16;11.83;;;3.80;;
16699;SDS011;8466;52.286;21.124;2024-01-25T04:46:45;8.53;;;3.20;;
16699;SDS011;8466;52.286;21.124;2024-01-25T04:49:14;11.93;;;3.23;;
16699;SDS011;8466;52.286;21.124;2024-01-25T04:51:43;13.37;;;3.33;;
16699;SDS011;8466;52.286;21.124;2024-01-25T04:54:11;11.40;;;3.03;;
16699;SDS011;8466;52.286;21.124;2024-01-25T04:56:42;7.53;;;2.80;;
16699;SDS011;8466;52.286;21.124;2024-01-25T04:59:12;10.90;;;3.60;;
16699;SDS011;8466;52.286;21.124;2024-01-25T05:01:41;6.63;;;2.80;;
16699;SDS011;8466;52.286;21.124;2024-01-25T05:04:10;10.83;;;4.30;;
16699;SDS011;8466;52.286;21.124;2024-01-25T05:06:39;13.40;;;4.77;;
16699;SDS011;8466;52.286;21.124;2024-01-25T05:09:07;9.30;;;3.83;;
16699;SDS011;8466;52.286;21.124;2024-01-25T05:11:37;7.30;;;3.73;;
16699;SDS011;8466;52.286;21.124;2024-01-25T05:14:07;16.30;;;8.17;;
16699;SDS011;8466;52.286;21.124;2024-01-25T05:16:37;10.20;;;3.93;;
16699;SDS011;8466;52.286;21.124;2024-01-25T05:19:05;10.50;;;3.57;;
16699;SDS011;8466;52.286;21.124;2024-01-25T05:21:34;10.40;;;3.57;;
16699;SDS011;8466;52.286;21.124;2024-01-25T05:24:03;9.40;;;3.93;;
16699;SDS011;8466;52.286;21.124;2024-01-25T05:26:33;8.57;;;3.80;;
16699;SDS011;8466;52.286;21.124;2024-01-25T05:29:01;10.93;;;4.30;;
16699;SDS011;8466;52.286;21.124;2024-01-25T05:31:30;10.77;;;4.27;;
16699;SDS011;8466;52.286;21.124;2024-01-25T05:34:00;8.60;;;3.80;;
16699;SDS011;8466;52.286;21.124;2024-01-25T05:36:29;8.93;;;4.13;;
16699;SDS011;8466;52.286;21.124;2024-01-25T05:38:58;6.43;;;2.83;;
16699;SDS011;8466;52.286;21.124;2024-01-25T05:41:26;8.87;;;2.70;;
16699;SDS011;8466;52.286;21.124;2024-01-25T05:43:55;7.40;;;2.87;;
16699;SDS011;8466;52.286;21.124;2024-01-25T05:46:24;9.63;;;2.83;;
16699;SDS011;8466;52.286;21.124;2024-01-25T05:48:53;6.97;;;2.80;;
16699;SDS011;8466;52.286;21.124;2024-01-25T05:51:23;8.03;;;2.67;;
16699;SDS011;8466;52.286;21.124;2024-01-25T05:53:52;7.50;;;2.70;;
16699;SDS011;8466;52.286;21.124;2024-01-25T05:56:21;6.13;;;3.00;;
16699;SDS011;8466;52.286;21.124;2024-01-25T05:58:51;6.20;;;2.50;;
16699;SDS011;8466;52.286;21.124;2024-01-25T06:01:20;4.77;;;2.13;;
16699;SDS011;8466;52.286;21.124;2024-01-25T06:03:49;7.07;;;3.13;;
16699;SDS011;8466;52.286;21.124;2024-01-25T06:06:19;8.67;;;3.10;;
16699;SDS011;8466;52.286;21.124;2024-01-25T06:08:50;8.50;;;2.93;;
16699;SDS011;8466;52.286;21.124;2024-01-25T06:11:32;8.90;;;2.80;;
16699;SDS011;8466;52.286;21.124;2024-01-25T06:14:02;9.87;;;4.07;;
16699;SDS011;8466;52.286;21.124;2024-01-25T06:16:31;7.53;;;3.60;;
16699;SDS011;8466;52.286;21.124;2024-01-25T06:18:59;8.97;;;3.40;;
16699;SDS011;8466;52.286;21.124;2024-01-25T06:21:30;9.88;;;3.47;;
16699;SDS011;8466;52.286;21.124;2024-01-25T06:24:02;9.40;;;4.10;;
16699;SDS011;8466;52.286;21.124;2024-01-25T06:26:32;8.47;;;3.50;;
16699;SDS011;8466;52.286;21.124;2024-01-25T06:29:01;6.93;;;2.63;;
16699;SDS011;8466;52.286;21.124;2024-01-25T06:31:29;7.80;;;3.50;;
16699;SDS011;8466;52.286;21.124;2024-01-25T06:33:59;10.05;;;5.07;;
16699;SDS011;8466;52.286;21.124;2024-01-25T06:36:28;7.30;;;3.20;;
16699;SDS011;8466;52.286;21.124;2024-01-25T06:38:56;10.97;;;4.40;;
16699;SDS011;8466;52.286;21.124;2024-01-25T06:41:26;7.43;;;3.73;;
16699;SDS011;8466;52.286;21.124;2024-01-25T06:43:56;13.00;;;5.50;;
16699;SDS011;8466;52.286;21.124;2024-01-25T06:46:27;8.82;;;4.35;;
16699;SDS011;8466;52.286;21.124;2024-01-25T06:48:56;10.90;;;3.63;;
16699;SDS011;8466;52.286;21.124;2024-01-25T06:51:25;8.97;;;3.97;;
16699;SDS011;8466;52.286;21.124;2024-01-25T06:53:54;13.77;;;5.80;;
16699;SDS011;8466;52.286;21.124;2024-01-25T06:56:23;11.93;;;5.00;;
16699;SDS011;8466;52.286;21.124;2024-01-25T06:58:53;10.93;;;4.30;;
16699;SDS011;8466;52.286;21.124;2024-01-25T07:01:22;12.73;;;6.40;;
16699;SDS011;8466;52.286;21.124;2024-01-25T07:03:51;11.40;;;5.77;;
16699;SDS011;8466;52.286;21.124;2024-01-25T07:06:20;11.23;;;6.63;;
16699;SDS011;8466;52.286;21.124;2024-01-25T07:08:49;10.77;;;5.63;;
16699;SDS011;8466;52.286;21.124;2024-01-25T07:11:18;15.20;;;5.70;;
16699;SDS011;8466;52.286;21.124;2024-01-25T07:13:46;9.67;;;4.77;;
16699;SDS011;8466;52.286;21.124;2024-01-25T07:16:16;10.63;;;4.50;;
16699;SDS011;8466;52.286;21.124;2024-01-25T07:18:46;13.63;;;4.67;;
16699;SDS011;8466;52.286;21.124;2024-01-25T07:21:15;10.27;;;4.43;;
16699;SDS011;8466;52.286;21.124;2024-01-25T07:23:44;7.43;;;3.37;;
16699;SDS011;8466;52.286;21.124;2024-01-25T07:26:16;10.60;;;5.00;;
16699;SDS011;8466;52.286;21.124;2024-01-25T07:28:45;10.60;;;4.53;;
16699;SDS011;8466;52.286;21.124;2024-01-25T07:31:14;11.43;;;3.57;;
16699;SDS011;8466;52.286;21.124;2024-01-25T07:33:44;7.33;;;2.87;;
16699;SDS011;8466;52.286;21.124;2024-01-25T07:36:13;10.03;;;3.80;;
16699;SDS011;8466;52.286;21.124;2024-01-25T07:38:43;6.97;;;3.10;;
16699;SDS011;8466;52.286;21.124;2024-01-25T07:41:13;6.57;;;2.97;;
16699;SDS011;8466;52.286;21.124;2024-01-25T07:43:42;8.07;;;3.10;;
16699;SDS011;8466;52.286;21.124;2024-01-25T07:46:11;6.93;;;3.43;;
16699;SDS011;8466;52.286;21.124;2024-01-25T07:48:42;6.27;;;3.07;;
16699;SDS011;8466;52.286;21.124;2024-01-25T07:51:13;6.67;;;3.13;;
16699;SDS011;8466;52.286;21.124;2024-01-25T07:53:41;6.33;;;3.27;;
16699;SDS011;8466;52.286;21.124;2024-01-25T07:56:10;5.60;;;2.63;;
16699;SDS011;8466;52.286;21.124;2024-01-25T07:58:39;6.60;;;2.80;;
16699;SDS011;8466;52.286;21.124;2024-01-25T08:01:09;6.97;;;3.20;;
16699;SDS011;8466;52.286;21.124;2024-01-25T08:03:39;5.67;;;3.13;;
16699;SDS011;8466;52.286;21.124;2024-01-25T08:06:08;4.20;;;2.90;;
16699;SDS011;8466;52.286;21.124;2024-01-25T08:08:38;6.50;;;3.10;;
16699;SDS011;8466;52.286;21.124;2024-01-25T08:11:07;7.30;;;3.30;;
16699;SDS011;8466;52.286;21.124;2024-01-25T08:13:35;5.80;;;2.67;;
16699;SDS011;8466;52.286;21.124;2024-01-25T08:16:08;3.87;;;2.47;;
16699;SDS011;8466;52.286;21.124;2024-01-25T08:18:37;5.67;;;2.40;;
16699;SDS011;8466;52.286;21.124;2024-01-25T08:21:06;5.07;;;2.53;;
16699;SDS011;8466;52.286;21.124;2024-01-25T08:23:35;5.00;;;2.90;;
16699;SDS011;8466;52.286;21.124;2024-01-25T08:26:05;5.57;;;2.70;;
16699;SDS011;8466;52.286;21.124;2024-01-25T08:28:35;4.20;;;2.43;;
16699;SDS011;8466;52.286;21.124;2024-01-25T08:31:06;4.23;;;2.47;;
16699;SDS011;8466;52.286;21.124;2024-01-25T08:33:34;4.63;;;2.47;;
16699;SDS011;8466;52.286;21.124;2024-01-25T08:36:03;3.10;;;2.40;;
16699;SDS011;8466;52.286;21.124;2024-01-25T08:38:33;4.13;;;2.50;;
16699;SDS011;8466;52.286;21.124;2024-01-25T08:41:02;2.77;;;2.07;;
16699;SDS011;8466;52.286;21.124;2024-01-25T08:43:34;3.87;;;2.10;;
16699;SDS011;8466;52.286;21.124;2024-01-25T08:46:06;2.97;;;2.27;;
16699;SDS011;8466;52.286;21.124;2024-01-25T08:48:46;3.27;;;2.20;;
16699;SDS011;8466;52.286;21.124;2024-01-25T08:51:17;3.27;;;2.30;;
16699;SDS011;8466;52.286;21.124;2024-01-25T08:53:48;2.67;;;2.43;;
16699;SDS011;8466;52.286;21.124;2024-01-25T08:56:19;2.10;;;1.90;;
16699;SDS011;8466;52.286;21.124;2024-01-25T08:58:50;4.07;;;2.47;;
16699;SDS011;8466;52.286;21.124;2024-01-25T09:01:20;3.30;;;2.10;;
16699;SDS011;8466;52.286;21.124;2024-01-25T09:03:50;3.67;;;2.50;;
16699;SDS011;8466;52.286;21.124;2024-01-25T09:06:21;2.53;;;1.90;;
16699;SDS011;8466;52.286;21.124;2024-01-25T09:08:52;2.10;;;1.90;;
16699;SDS011;8466;52.286;21.124;2024-01-25T09:11:27;2.67;;;2.07;;
16699;SDS011;8466;52.286;21.124;2024-01-25T09:13:57;2.83;;;1.90;;
16699;SDS011;8466;52.286;21.124;2024-01-25T09:16:41;2.50;;;1.97;;
16699;SDS011;8466;52.286;21.124;2024-01-25T09:19:11;4.27;;;2.23;;
16699;SDS011;8466;52.286;21.124;2024-01-25T09:21:44;2.83;;;2.10;;
16699;SDS011;8466;52.286;21.124;2024-01-25T09:24:23;3.43;;;2.43;;
16699;SDS011;8466;52.286;21.124;2024-01-25T09:26:52;4.63;;;2.87;;
16699;SDS011;8466;52.286;21.124;2024-01-25T09:29:23;6.27;;;2.20;;
16699;SDS011;8466;52.286;21.124;2024-01-25T09:31:52;2.33;;;2.10;;
16699;SDS011;8466;52.286;21.124;2024-01-25T09:34:21;3.10;;;1.90;;
16699;SDS011;8466;52.286;21.124;2024-01-25T09:36:49;2.10;;;1.90;;
16699;SDS011;8466;52.286;21.124;2024-01-25T09:39:18;1.80;;;1.70;;
16699;SDS011;8466;52.286;21.124;2024-01-25T09:41:48;4.23;;;2.17;;
16699;SDS011;8466;52.286;21.124;2024-01-25T09:44:23;2.73;;;2.50;;
16699;SDS011;8466;52.286;21.124;2024-01-25T09:46:55;3.00;;;2.30;;
16699;SDS011;8466;52.286;21.124;2024-01-25T09:49:25;2.03;;;1.70;;
16699;SDS011;8466;52.286;21.124;2024-01-25T09:51:54;2.83;;;2.03;;
16699;SDS011;8466;52.286;21.124;2024-01-25T09:54:24;6.43;;;2.53;;
16699;SDS011;8466;52.286;21.124;2024-01-25T09:56:56;2.27;;;1.87;;
16699;SDS011;8466;52.286;21.124;2024-01-25T09:59:26;3.43;;;2.40;;
16699;SDS011;8466;52.286;21.124;2024-01-25T10:01:55;2.93;;;2.10;;
16699;SDS011;8466;52.286;21.124;2024-01-25T10:04:25;3.30;;;1.70;;
16699;SDS011;8466;52.286;21.124;2024-01-25T10:06:55;3.07;;;2.37;;
16699;SDS011;8466;52.286;21.124;2024-01-25T10:09:24;4.87;;;2.40;;
16699;SDS011;8466;52.286;21.124;2024-01-25T10:11:53;2.40;;;2.20;;
16699;SDS011;8466;52.286;21.124;2024-01-25T10:14:43;4.77;;;2.60;;
16699;SDS011;8466;52.286;21.124;2024-01-25T10:17:12;3.60;;;2.07;;
16699;SDS011;8466;52.286;21.124;2024-01-25T10:19:42;4.43;;;2.13;;
16699;SDS011;8466;52.286;21.124;2024-01-25T10:22:13;4.87;;;2.80;;
16699;SDS011;8466;52.286;21.124;2024-01-25T10:24:45;2.97;;;2.43;;
16699;SDS011;8466;52.286;21.124;2024-01-25T10:27:18;3.73;;;2.50;;
16699;SDS011;8466;52.286;21.124;2024-01-25T10:29:48;5.10;;;2.00;;
16699;SDS011;8466;52.286;21.124;2024-01-25T10:32:18;2.10;;;1.90;;
16699;SDS011;8466;52.286;21.124;2024-01-25T10:34:47;2.53;;;1.90;;
16699;SDS011;8466;52.286;21.124;2024-01-25T10:37:18;4.23;;;2.20;;
16699;SDS011;8466;52.286;21.124;2024-01-25T10:39:48;3.53;;;2.10;;
16699;SDS011;8466;52.286;21.124;2024-01-25T10:42:18;3.20;;;2.07;;
16699;SDS011;8466;52.286;21.124;2024-01-25T10:44:48;2.20;;;1.80;;
16699;SDS011;8466;52.286;21.124;2024-01-25T10:47:18;2.40;;;2.20;;
16699;SDS011;8466;52.286;21.124;2024-01-25T10:49:47;3.23;;;2.00;;
16699;SDS011;8466;52.286;21.124;2024-01-25T10:52:17;2.33;;;1.83;;
16699;SDS011;8466;52.286;21.124;2024-01-25T10:54:46;3.43;;;1.50;;
16699;SDS011;8466;52.286;21.124;2024-01-25T10:57:15;2.13;;;1.77;;
16699;SDS011;8466;52.286;21.124;2024-01-25T10:59:44;2.77;;;2.27;;
16699;SDS011;8466;52.286;21.124;2024-01-25T11:02:15;3.83;;;2.03;;
16699;SDS011;8466;52.286;21.124;2024-01-25T11:04:52;3.27;;;1.70;;
16699;SDS011;8466;52.286;21.124;2024-01-25T11:07:22;2.10;;;1.43;;
16699;SDS011;8466;52.286;21.124;2024-01-25T11:09:51;2.07;;;1.83;;
16699;SDS011;8466;52.286;21.124;2024-01-25T11:12:20;3.20;;;1.52;;
16699;SDS011;8466;52.286;21.124;2024-01-25T11:14:53;2.53;;;1.60;;
16699;SDS011;8466;52.286;21.124;2024-01-25T11:17:23;2.40;;;1.77;;
16699;SDS011;8466;52.286;21.124;2024-01-25T11:19:52;2.70;;;1.73;;
16699;SDS011;8466;52.286;21.124;2024-01-25T11:22:21;4.00;;;1.90;;
16699;SDS011;8466;52.286;21.124;2024-01-25T11:24:51;3.23;;;2.20;;
16699;SDS011;8466;52.286;21.124;2024-01-25T11:27:20;2.20;;;1.60;;
16699;SDS011;8466;52.286;21.124;2024-01-25T11:29:49;1.90;;;1.50;;
16699;SDS011;8466;52.286;21.124;2024-01-25T11:32:18;3.27;;;1.70;;
16699;SDS011;8466;52.286;21.124;2024-01-25T11:34:59;3.27;;;2.10;;
16699;SDS011;8466;52.286;21.124;2024-01-25T11:37:28;5.17;;;2.00;;
16699;SDS011;8466;52.286;21.124;2024-01-25T11:39:57;3.47;;;2.10;;
16699;SDS011;8466;52.286;21.124;2024-01-25T11:42:25;3.33;;;1.93;;
16699;SDS011;8466;52.286;21.124;2024-01-25T11:44:57;3.10;;;2.20;;
16699;SDS011;8466;52.286;21.124;2024-01-25T11:47:25;2.88;;;1.85;;
16699;SDS011;8466;52.286;21.124;2024-01-25T11:49:54;2.47;;;1.90;;
16699;SDS011;8466;52.286;21.124;2024-01-25T11:52:24;3.23;;;2.40;;
16699;SDS011;8466;52.286;21.124;2024-01-25T11:54:56;4.03;;;2.60;;
16699;SDS011;8466;52.286;21.124;2024-01-25T11:57:25;5.17;;;2.47;;
16699;SDS011;8466;52.286;21.124;2024-01-25T11:59:54;2.30;;;2.00;;
16699;SDS011;8466;52.286;21.124;2024-01-25T12:02:23;3.63;;;2.57;;
16699;SDS011;8466;52.286;21.124;2024-01-25T12:04:53;3.30;;;2.43;;
16699;SDS011;8466;52.286;21.124;2024-01-25T12:07:25;4.27;;;2.63;;
16699;SDS011;8466;52.286;21.124;2024-01-25T12:09:58;3.30;;;1.97;;
16699;SDS011;8466;52.286;21.124;2024-01-25T12:12:27;2.00;;;1.80;;
16699;SDS011;8466;52.286;21.124;2024-01-25T12:14:57;2.13;;;1.10;;
16699;SDS011;8466;52.286;21.124;2024-01-25T12:17:27;1.63;;;1.30;;
16699;SDS011;8466;52.286;21.124;2024-01-25T12:19:56;2.17;;;1.50;;
16699;SDS011;8466;52.286;21.124;2024-01-25T12:22:28;1.80;;;1.63;;
16699;SDS011;8466;52.286;21.124;2024-01-25T12:25:01;3.10;;;1.90;;
16699;SDS011;8466;52.286;21.124;2024-01-25T12:27:30;2.60;;;2.30;;
16699;SDS011;8466;52.286;21.124;2024-01-25T12:29:59;2.63;;;2.20;;
16699;SDS011;8466;52.286;21.124;2024-01-25T12:32:31;3.00;;;2.00;;
16699;SDS011;8466;52.286;21.124;2024-01-25T12:35:00;2.07;;;1.87;;
16699;SDS011;8466;52.286;21.124;2024-01-25T12:37:32;2.83;;;2.00;;
16699;SDS011;8466;52.286;21.124;2024-01-25T12:40:00;2.27;;;2.00;;
16699;SDS011;8466;52.286;21.124;2024-01-25T12:42:30;2.67;;;2.10;;
16699;SDS011;8466;52.286;21.124;2024-01-25T12:45:00;1.90;;;1.70;;
16699;SDS011;8466;52.286;21.124;2024-01-25T12:47:28;4.57;;;2.33;;
16699;SDS011;8466;52.286;21.124;2024-01-25T12:49:57;2.47;;;2.20;;
16699;SDS011;8466;52.286;21.124;2024-01-25T12:52:29;2.60;;;2.30;;
16699;SDS011;8466;52.286;21.124;2024-01-25T12:54:59;2.60;;;2.20;;
16699;SDS011;8466;52.286;21.124;2024-01-25T12:57:30;3.97;;;2.30;;
16699;SDS011;8466;52.286;21.124;2024-01-25T12:59:59;4.07;;;3.00;;
16699;SDS011;8466;52.286;21.124;2024-01-25T13:02:28;2.90;;;2.00;;
16699;SDS011;8466;52.286;21.124;2024-01-25T13:04:58;3.27;;;2.80;;
16699;SDS011;8466;52.286;21.124;2024-01-25T13:07:27;2.50;;;2.30;;
16699;SDS011;8466;52.286;21.124;2024-01-25T13:09:56;4.37;;;2.60;;
16699;SDS011;8466;52.286;21.124;2024-01-25T13:12:26;3.23;;;2.77;;
16699;SDS011;8466;52.286;21.124;2024-01-25T13:14:56;4.43;;;2.80;;
16699;SDS011;8466;52.286;21.124;2024-01-25T13:17:25;3.40;;;3.03;;
16699;SDS011;8466;52.286;21.124;2024-01-25T13:19:55;4.77;;;3.60;;
16699;SDS011;8466;52.286;21.124;2024-01-25T13:22:25;2.87;;;2.53;;
16699;SDS011;8466;52.286;21.124;2024-01-25T13:24:54;2.27;;;2.07;;
16699;SDS011;8466;52.286;21.124;2024-01-25T13:27:28;1.80;;;1.60;;
16699;SDS011;8466;52.286;21.124;2024-01-25T13:29:57;2.10;;;1.70;;
16699;SDS011;8466;52.286;21.124;2024-01-25T13:32:26;1.93;;;1.80;;
16699;SDS011;8466;52.286;21.124;2024-01-25T13:34:55;2.63;;;1.80;;
16699;SDS011;8466;52.286;21.124;2024-01-25T13:37:24;3.17;;;2.10;;
16699;SDS011;8466;52.286;21.124;2024-01-25T13:40:15;3.23;;;2.13;;
16699;SDS011;8466;52.286;21.124;2024-01-25T13:42:48;2.27;;;1.80;;
16699;SDS011;8466;52.286;21.124;2024-01-25T13:45:17;2.23;;;1.90;;
16699;SDS011;8466;52.286;21.124;2024-01-25T13:47:46;4.90;;;3.47;;
16699;SDS011;8466;52.286;21.124;2024-01-25T13:50:15;3.30;;;1.60;;
16699;SDS011;8466;52.286;21.124;2024-01-25T13:52:47;3.90;;;2.53;;
16699;SDS011;8466;52.286;21.124;2024-01-25T13:55:18;1.70;;;1.60;;
16699;SDS011;8466;52.286;21.124;2024-01-25T13:57:48;2.87;;;1.63;;
16699;SDS011;8466;52.286;21.124;2024-01-25T14:00:18;2.40;;;1.77;;
16699;SDS011;8466;52.286;21.124;2024-01-25T14:02:47;2.03;;;1.63;;
16699;SDS011;8466;52.286;21.124;2024-01-25T14:05:16;2.40;;;1.80;;
16699;SDS011;8466;52.286;21.124;2024-01-25T14:07:46;3.60;;;2.20;;
16699;SDS011;8466;52.286;21.124;2024-01-25T14:10:15;3.77;;;2.57;;
16699;SDS011;8466;52.286;21.124;2024-01-25T14:12:45;4.60;;;2.30;;
16699;SDS011;8466;52.286;21.124;2024-01-25T14:15:16;3.20;;;2.30;;
16699;SDS011;8466;52.286;21.124;2024-01-25T14:17:45;3.43;;;2.70;;
16699;SDS011;8466;52.286;21.124;2024-01-25T14:20:14;4.33;;;2.43;;
16699;SDS011;8466;52.286;21.124;2024-01-25T14:22:44;4.47;;;2.10;;
16699;SDS011;8466;52.286;21.124;2024-01-25T14:25:13;3.87;;;2.33;;
16699;SDS011;8466;52.286;21.124;2024-01-25T14:27:42;3.57;;;1.83;;
16699;SDS011;8466;52.286;21.124;2024-01-25T14:30:16;2.13;;;1.70;;
16699;SDS011;8466;52.286;21.124;2024-01-25T14:32:45;3.13;;;2.00;;
16699;SDS011;8466;52.286;21.124;2024-01-25T14:35:14;3.23;;;1.77;;
16699;SDS011;8466;52.286;21.124;2024-01-25T14:37:43;2.93;;;1.90;;
16699;SDS011;8466;52.286;21.124;2024-01-25T14:40:12;2.40;;;1.87;;
16699;SDS011;8466;52.286;21.124;2024-01-25T14:43:01;3.00;;;2.10;;
16699;SDS011;8466;52.286;21.124;2024-01-25T14:45:31;2.23;;;1.90;;
16699;SDS011;8466;52.286;21.124;2024-01-25T14:48:03;2.97;;;1.90;;
16699;SDS011;8466;52.286;21.124;2024-01-25T14:50:32;2.50;;;2.10;;
16699;SDS011;8466;52.286;21.124;2024-01-25T14:53:00;3.40;;;2.13;;
16699;SDS011;8466;52.286;21.124;2024-01-25T14:55:29;3.17;;;2.03;;
16699;SDS011;8466;52.286;21.124;2024-01-25T14:57:58;3.73;;;2.23;;
16699;SDS011;8466;52.286;21.124;2024-01-25T15:00:27;2.27;;;1.90;;